createdAt,value
2019-02-12T00:02:14.956Z,96.80
2019-02-12T00:04:41.296Z,96.80
2019-02-12T00:07:08.053Z,96.70
2019-02-12T00:09:35.344Z,96.60
2019-02-12T00:12:01.717Z,96.80
2019-02-12T00:14:27.948Z,96.90
2019-02-12T00:16:54.405Z,96.70
2019-02-12T00:19:20.840Z,97.00
2019-02-12T00:21:47.084Z,96.90
2019-02-12T00:24:13.468Z,97.20
2019-02-12T00:26:39.812Z,96.80
2019-02-12T00:29:06.314Z,96.70
2019-02-12T00:31:32.761Z,96.60
2019-02-12T00:33:59.005Z,96.60
2019-02-12T00:36:25.355Z,96.30
2019-02-12T00:38:51.689Z,96.70
2019-02-12T00:41:18.032Z,96.80
2019-02-12T00:43:44.365Z,96.70
2019-02-12T00:46:10.760Z,96.60
2019-02-12T00:48:37.181Z,96.90
2019-02-12T00:51:03.426Z,96.70
2019-02-12T00:53:30.061Z,96.70
2019-02-12T00:55:56.389Z,96.80
2019-02-12T00:58:22.733Z,96.80
2019-02-12T01:00:49.085Z,96.80
2019-02-12T01:03:15.420Z,96.70
2019-02-12T01:05:41.965Z,96.60
2019-02-12T01:08:08.429Z,96.80
2019-02-12T01:10:34.624Z,97.00
2019-02-12T01:13:00.872Z,96.80
2019-02-12T01:15:27.320Z,97.00
2019-02-12T01:17:53.664Z,97.30
2019-02-12T01:20:20.105Z,97.10
2019-02-12T01:22:46.456Z,97.10
2019-02-12T01:25:12.801Z,97.10
2019-02-12T01:27:39.284Z,97.30
2019-02-12T01:30:11.769Z,96.70
2019-02-12T01:32:38.270Z,97.10
2019-02-12T01:35:05.117Z,97.30
2019-02-12T01:37:31.561Z,97.40
2019-02-12T01:39:57.905Z,97.40
2019-02-12T01:42:24.153Z,97.50
2019-02-12T01:44:50.493Z,97.40
2019-02-12T01:47:16.729Z,97.60
2019-02-12T01:49:42.969Z,97.60
2019-02-12T01:52:09.449Z,97.70
2019-02-12T01:54:35.988Z,97.90
2019-02-12T01:57:02.421Z,97.70
2019-02-12T01:59:28.681Z,97.70
2019-02-12T02:01:55.041Z,97.50
2019-02-12T02:04:21.389Z,97.40
2019-02-12T02:06:47.764Z,97.50
2019-02-12T02:09:14.199Z,97.30
2019-02-12T02:11:40.599Z,97.60
2019-02-12T02:14:06.973Z,97.70
2019-02-12T02:16:33.214Z,97.40
2019-02-12T02:18:59.652Z,97.30
2019-02-12T02:21:26.110Z,97.20
2019-02-12T02:23:52.457Z,97.20
2019-02-12T02:26:18.797Z,97.50
2019-02-12T02:28:45.147Z,97.30
2019-02-12T02:31:11.497Z,97.20
2019-02-12T02:33:37.861Z,97.20
2019-02-12T02:36:04.088Z,97.20
2019-02-12T02:38:30.551Z,97.10
2019-02-12T02:40:56.818Z,97.20
2019-02-12T02:43:23.049Z,97.20
2019-02-12T02:45:49.390Z,97.20
2019-02-12T02:48:15.630Z,96.80
2019-02-12T02:50:42.143Z,96.70
2019-02-12T02:53:08.379Z,96.80
2019-02-12T02:55:34.609Z,96.80
2019-02-12T02:58:00.804Z,96.70
2019-02-12T03:00:27.258Z,96.70
2019-02-12T03:02:53.476Z,96.30
2019-02-12T03:05:19.825Z,96.30
2019-02-12T03:07:46.260Z,96.10
2019-02-12T03:10:12.499Z,96.30
2019-02-12T03:12:39.174Z,96.30
2019-02-12T03:15:07.988Z,96.30
2019-02-12T03:17:34.220Z,96.20
2019-02-12T03:20:00.596Z,96.30
2019-02-12T03:22:26.835Z,95.90
2019-02-12T03:24:53.068Z,95.90
2019-02-12T03:27:19.694Z,95.80
2019-02-12T03:29:45.914Z,95.60
2019-02-12T03:32:12.257Z,95.70
2019-02-12T03:34:38.679Z,95.80
2019-02-12T03:37:05.110Z,95.80
2019-02-12T03:39:31.669Z,95.90
2019-02-12T03:41:57.925Z,95.70
2019-02-12T03:44:24.365Z,95.80
2019-02-12T03:46:50.605Z,96.00
2019-02-12T03:49:17.145Z,95.90
2019-02-12T03:51:43.368Z,95.80
2019-02-12T03:54:09.708Z,95.80
2019-02-12T03:56:36.731Z,96.10
2019-02-12T03:59:03.172Z,96.20
2019-02-12T04:01:29.809Z,96.00
2019-02-12T04:03:56.158Z,96.10
2019-02-12T04:06:22.488Z,96.10
2019-02-12T04:08:48.824Z,96.10
2019-02-12T04:11:15.475Z,95.90
2019-02-12T04:13:41.761Z,96.30
2019-02-12T04:16:08.106Z,96.30
2019-02-12T04:18:34.577Z,96.20
2019-02-12T04:21:01.013Z,96.10
2019-02-12T04:23:27.348Z,96.20
2019-02-12T04:25:53.929Z,95.90
2019-02-12T04:28:22.073Z,95.80
2019-02-12T04:30:48.303Z,96.00
2019-02-12T04:33:14.891Z,95.90
2019-02-12T04:35:41.169Z,95.90
2019-02-12T04:38:07.417Z,96.20
2019-02-12T04:40:33.809Z,96.00
2019-02-12T04:43:00.145Z,96.00
2019-02-12T04:45:26.586Z,96.10
2019-02-12T04:47:52.969Z,96.30
2019-02-12T04:50:19.196Z,96.30
2019-02-12T04:52:45.544Z,96.60
2019-02-12T04:55:11.985Z,96.70
2019-02-12T04:57:38.357Z,97.00
2019-02-12T05:00:10.933Z,97.10
2019-02-12T05:02:37.277Z,97.30
2019-02-12T05:05:06.518Z,97.50
2019-02-12T05:07:32.956Z,97.70
2019-02-12T05:09:59.437Z,97.80
2019-02-12T05:12:25.658Z,98.20
2019-02-12T05:14:52.053Z,98.30
2019-02-12T05:17:18.576Z,98.20
2019-02-12T05:19:44.901Z,98.20
2019-02-12T05:22:11.242Z,98.10
2019-02-12T05:24:37.770Z,98.20
2019-02-12T05:27:04.119Z,98.00
2019-02-12T05:29:30.492Z,97.90
2019-02-12T05:31:56.909Z,98.10
2019-02-12T05:34:23.233Z,98.00
2019-02-12T05:36:49.708Z,98.10
2019-02-12T05:39:16.118Z,98.30
2019-02-12T05:41:42.549Z,98.10
2019-02-12T05:44:08.789Z,98.00
2019-02-12T05:46:35.312Z,98.20
2019-02-12T05:49:02.773Z,98.20
2019-02-12T05:51:29.109Z,98.00
2019-02-12T05:53:55.506Z,98.20
2019-02-12T05:56:21.744Z,98.20
2019-02-12T05:58:47.987Z,98.30
2019-02-12T06:01:15.736Z,98.10
2019-02-12T06:03:41.973Z,98.10
2019-02-12T06:06:08.421Z,98.30
2019-02-12T06:08:34.865Z,98.60
2019-02-12T06:11:01.194Z,98.50
2019-02-12T06:13:27.628Z,98.20
2019-02-12T06:15:54.167Z,98.10
2019-02-12T06:18:20.385Z,98.10
2019-02-12T06:20:46.642Z,97.90
2019-02-12T06:23:12.988Z,98.10
2019-02-12T06:25:39.391Z,98.30
2019-02-12T06:28:05.893Z,98.00
2019-02-12T06:30:32.242Z,98.00
2019-02-12T06:33:06.986Z,98.20
2019-02-12T06:35:26.814Z,98.10
2019-02-12T06:37:53.057Z,98.20
2019-02-12T06:40:19.416Z,98.10
2019-02-12T06:42:45.649Z,98.00
2019-02-12T06:45:12.929Z,98.00
2019-02-12T06:47:39.168Z,98.10
2019-02-12T06:50:11.843Z,98.20
2019-02-12T06:52:38.408Z,98.10
2019-02-12T06:55:06.549Z,97.90
2019-02-12T06:57:32.892Z,97.50
2019-02-12T06:59:59.367Z,97.60
2019-02-12T07:03:04.217Z,97.30
2019-02-12T07:05:30.488Z,97.20
2019-02-12T07:08:30.561Z,97.30
2019-02-12T07:11:22.953Z,97.20
2019-02-12T07:14:16.881Z,97.10
2019-02-12T07:17:07.881Z,97.20
2019-02-12T07:19:49.769Z,97.00
2019-02-12T07:22:42.341Z,97.00
2019-02-12T07:25:33.422Z,97.10
2019-02-12T07:28:12.327Z,97.00
2019-02-12T07:30:45.190Z,97.00
2019-02-12T07:33:17.961Z,96.60
2019-02-12T07:35:48.002Z,96.90
2019-02-12T07:38:18.206Z,96.90
2019-02-12T07:41:20.232Z,96.30
2019-02-12T07:44:02.483Z,96.80
2019-02-12T07:46:41.058Z,96.70
2019-02-12T07:49:28.941Z,96.20
2019-02-12T07:52:04.845Z,96.00
2019-02-12T07:54:37.595Z,96.00
2019-02-12T07:57:30.290Z,95.90
2019-02-12T08:00:18.180Z,95.90
2019-02-12T08:03:06.164Z,95.90
2019-02-12T08:05:48.112Z,95.80
2019-02-12T08:08:21.115Z,95.80
2019-02-12T08:11:13.970Z,95.40
2019-02-12T08:13:49.805Z,95.10
2019-02-12T08:16:31.673Z,95.70
2019-02-12T08:19:18.213Z,95.10
2019-02-12T08:21:57.191Z,94.80
2019-02-12T08:24:33.274Z,94.90
2019-02-12T08:27:12.057Z,95.10
2019-02-12T08:29:58.533Z,95.10
2019-02-12T08:32:29.727Z,94.70
2019-02-12T08:35:22.641Z,94.90
2019-02-12T08:38:20.041Z,95.00
2019-02-12T08:41:02.313Z,94.90
2019-02-12T08:43:47.200Z,94.30
2019-02-12T08:46:26.283Z,94.30
2019-02-12T08:49:11.421Z,94.40
2019-02-12T08:51:47.618Z,94.20
2019-02-12T08:54:20.507Z,94.20
2019-02-12T08:56:53.500Z,94.00
2019-02-12T08:59:32.604Z,94.30
2019-02-12T09:02:25.269Z,94.00
2019-02-12T09:05:07.206Z,94.30
2019-02-12T09:07:37.365Z,93.30
2019-02-12T09:10:15.783Z,93.30
2019-02-12T09:13:02.589Z,93.40
2019-02-12T09:15:41.455Z,93.30
2019-02-12T09:18:37.258Z,93.50
2019-02-12T09:21:16.209Z,93.40
2019-02-12T09:23:49.055Z,93.10
2019-02-12T09:26:35.617Z,93.00
2019-02-12T09:29:08.822Z,92.80
2019-02-12T09:31:50.729Z,92.90
2019-02-12T09:34:23.925Z,92.50
2019-02-12T09:37:27.005Z,92.60
2019-02-12T09:40:25.661Z,92.50
2019-02-12T09:43:12.165Z,92.10
2019-02-12T09:46:03.306Z,92.30
2019-02-12T09:48:51.016Z,92.40
2019-02-12T09:51:26.832Z,92.20
2019-02-12T09:54:08.579Z,92.20
2019-02-12T09:56:40.097Z,91.70
2019-02-12T09:59:10.136Z,91.60
2019-02-12T10:01:43.206Z,91.30
2019-02-12T10:04:29.593Z,91.70
2019-02-12T10:07:02.765Z,91.30
2019-02-12T10:09:35.605Z,91.00
2019-02-12T10:12:17.625Z,90.80
2019-02-12T10:14:59.515Z,90.90
2019-02-12T10:17:32.453Z,90.80
2019-02-12T10:20:14.292Z,90.70
2019-02-12T10:22:56.459Z,90.60
2019-02-12T10:25:23.482Z,90.30
2019-02-12T10:28:26.618Z,90.00
2019-02-12T10:31:10.962Z,89.40
2019-02-12T10:33:37.405Z,89.30
2019-02-12T10:36:03.846Z,89.00
2019-02-12T10:38:30.201Z,87.60
2019-02-12T10:40:56.608Z,86.20
2019-02-12T10:43:23.316Z,84.90
2019-02-12T10:45:49.586Z,79.70
2019-02-12T10:48:16.029Z,76.40
2019-02-12T10:50:42.272Z,72.80
2019-02-12T10:53:09.024Z,67.40
2019-02-12T10:55:35.560Z,64.40
2019-02-12T10:58:01.796Z,63.90
2019-02-12T11:00:28.225Z,61.70
2019-02-12T11:02:54.507Z,61.00
2019-02-12T11:05:20.845Z,61.60
2019-02-12T11:07:47.178Z,59.20
2019-02-12T11:10:13.538Z,58.00
2019-02-12T11:12:39.985Z,58.30
2019-02-12T11:15:08.130Z,58.60
2019-02-12T11:17:34.577Z,56.30
2019-02-12T11:20:03.538Z,57.30
2019-02-12T11:22:29.881Z,56.90
2019-02-12T11:24:56.389Z,58.40
2019-02-12T11:27:23.876Z,58.30
2019-02-12T11:29:50.169Z,56.80
2019-02-12T11:32:16.711Z,56.10
2019-02-12T11:34:42.953Z,55.00
2019-02-12T11:37:09.304Z,56.10
2019-02-12T11:39:35.660Z,57.70
2019-02-12T11:42:02.213Z,55.30
2019-02-12T11:44:28.452Z,54.60
2019-02-12T11:46:54.760Z,53.60
2019-02-12T11:49:20.993Z,53.40
2019-02-12T11:51:47.549Z,53.40
2019-02-12T11:54:13.923Z,52.30
2019-02-12T11:56:40.301Z,52.90
2019-02-12T11:59:06.661Z,53.50
2019-02-12T12:01:33.086Z,53.10
2019-02-12T12:03:59.342Z,52.30
2019-02-12T12:06:25.765Z,52.20
2019-02-12T12:08:52.034Z,53.10
2019-02-12T12:11:18.273Z,52.40
2019-02-12T12:13:44.612Z,52.40
2019-02-12T12:16:11.274Z,53.10
2019-02-12T12:18:37.612Z,54.60
2019-02-12T12:21:03.953Z,56.70
2019-02-12T12:23:31.805Z,57.90
2019-02-12T12:25:58.040Z,58.50
2019-02-12T12:28:24.380Z,58.80
2019-02-12T12:30:50.702Z,58.60
2019-02-12T12:33:16.944Z,58.70
2019-02-12T12:35:43.288Z,58.10
2019-02-12T12:38:09.666Z,58.70
2019-02-12T12:40:36.085Z,56.60
2019-02-12T12:43:02.433Z,55.90
2019-02-12T12:45:28.901Z,57.00
2019-02-12T12:47:55.338Z,56.80
2019-02-12T12:50:21.775Z,57.10
2019-02-12T12:52:48.264Z,56.80
2019-02-12T12:55:14.682Z,56.80
2019-02-12T12:57:42.170Z,56.30
2019-02-12T13:00:11.288Z,58.00
2019-02-12T13:02:37.732Z,59.30
2019-02-12T13:05:04.876Z,58.90
2019-02-12T13:07:33.145Z,60.20
2019-02-12T13:09:59.377Z,59.70
2019-02-12T13:12:25.813Z,60.30
2019-02-12T13:14:52.375Z,60.50
2019-02-12T13:17:18.699Z,60.90
2019-02-12T13:19:44.947Z,61.70
2019-02-12T13:22:11.293Z,62.20
2019-02-12T13:24:37.641Z,61.40
2019-02-12T13:27:04.132Z,61.70
2019-02-12T13:29:30.506Z,61.80
2019-02-12T13:31:56.994Z,62.10
2019-02-12T13:34:23.244Z,62.50
2019-02-12T13:36:49.792Z,62.90
2019-02-12T13:39:16.133Z,63.40
2019-02-12T13:41:42.379Z,63.60
2019-02-12T13:44:08.748Z,64.00
2019-02-12T13:46:34.968Z,63.90
2019-02-12T13:49:01.224Z,64.10
2019-02-12T13:51:27.464Z,64.50
2019-02-12T13:53:53.720Z,64.90
2019-02-12T13:56:19.957Z,63.90
2019-02-12T13:58:46.228Z,64.40
2019-02-12T14:01:12.567Z,64.30
2019-02-12T14:03:38.935Z,64.70
2019-02-12T14:06:05.268Z,65.20
2019-02-12T14:08:31.572Z,65.30
2019-02-12T14:10:57.809Z,65.70
2019-02-12T14:13:24.164Z,66.10
2019-02-12T14:15:50.404Z,65.80
2019-02-12T14:18:16.756Z,66.10
2019-02-12T14:20:43.329Z,66.60
2019-02-12T14:23:09.653Z,67.30
2019-02-12T14:25:35.914Z,67.50
2019-02-12T14:28:03.365Z,67.40
2019-02-12T14:30:29.725Z,67.10
2019-02-12T14:32:55.925Z,67.70
2019-02-12T14:35:22.262Z,68.10
2019-02-12T14:37:48.491Z,67.90
2019-02-12T14:40:15.137Z,68.80
2019-02-12T14:42:41.621Z,68.90
2019-02-12T14:45:14.652Z,68.90
2019-02-12T14:47:40.997Z,69.50
2019-02-12T14:50:12.071Z,69.80
2019-02-12T14:52:38.461Z,70.10
2019-02-12T14:55:04.845Z,70.80
2019-02-12T14:57:31.188Z,70.60
2019-02-12T14:59:57.540Z,70.30
2019-02-12T15:02:23.991Z,71.20
2019-02-12T15:04:50.675Z,71.60
2019-02-12T15:07:16.989Z,71.50
2019-02-12T15:09:43.324Z,71.20
2019-02-12T15:12:09.871Z,71.50
2019-02-12T15:14:36.300Z,72.20
2019-02-12T15:17:02.742Z,71.90
2019-02-12T15:19:29.091Z,71.50
2019-02-12T15:21:55.352Z,71.50
2019-02-12T15:24:21.589Z,71.00
2019-02-12T15:26:47.873Z,70.90
2019-02-12T15:29:14.185Z,70.80
2019-02-12T15:31:40.532Z,71.20
2019-02-12T15:34:06.998Z,70.70
2019-02-12T15:36:33.236Z,70.60
2019-02-12T15:38:59.473Z,71.00
2019-02-12T15:41:25.834Z,71.60
2019-02-12T15:43:52.174Z,71.90
2019-02-12T15:46:18.516Z,71.90
2019-02-12T15:48:44.983Z,72.00
2019-02-12T15:51:11.339Z,71.50
2019-02-12T15:53:37.676Z,71.30
2019-02-12T15:56:04.337Z,72.10
2019-02-12T15:58:30.581Z,71.80
2019-02-12T16:00:57.037Z,71.50
2019-02-12T16:03:23.996Z,72.10
2019-02-12T16:05:50.465Z,72.40
2019-02-12T16:08:16.857Z,72.60
2019-02-12T16:10:43.308Z,73.10
2019-02-12T16:13:11.450Z,72.80
2019-02-12T16:15:37.805Z,73.40
2019-02-12T16:18:04.451Z,72.30
2019-02-12T16:20:31.521Z,73.40
2019-02-12T16:22:58.837Z,73.00
2019-02-12T16:25:25.272Z,73.00
2019-02-12T16:27:51.497Z,73.50
2019-02-12T16:30:19.166Z,72.30
2019-02-12T16:32:45.673Z,73.40
2019-02-12T16:35:13.630Z,73.00
2019-02-12T16:37:39.877Z,73.00
2019-02-12T16:40:09.030Z,73.20
2019-02-12T16:42:35.353Z,72.80
2019-02-12T16:45:01.998Z,72.60
2019-02-12T16:47:28.420Z,72.40
2019-02-12T16:49:54.761Z,72.80
2019-02-12T16:52:21.301Z,73.20
2019-02-12T16:54:48.116Z,72.60
2019-02-12T16:57:14.452Z,72.60
2019-02-12T16:59:40.796Z,73.10
2019-02-12T17:02:07.437Z,73.70
2019-02-12T17:04:33.683Z,73.60
2019-02-12T17:07:00.117Z,73.30
2019-02-12T17:09:26.484Z,73.20
2019-02-12T17:11:52.818Z,72.30
2019-02-12T17:14:19.157Z,72.30
2019-02-12T17:16:45.536Z,71.90
2019-02-12T17:19:11.881Z,72.10
2019-02-12T17:21:38.171Z,72.20
2019-02-12T17:24:04.385Z,71.80
2019-02-12T17:26:30.625Z,71.70
2019-02-12T17:28:56.965Z,72.50
2019-02-12T17:31:24.162Z,72.30
2019-02-12T17:33:50.396Z,71.70
2019-02-12T17:36:16.645Z,72.50
2019-02-12T17:38:43.208Z,72.60
2019-02-12T17:41:09.553Z,72.30
2019-02-12T17:43:35.793Z,72.90
2019-02-12T17:46:02.442Z,72.90
2019-02-12T17:48:28.760Z,73.20
2019-02-12T17:50:55.122Z,72.80
2019-02-12T17:53:21.361Z,72.10
2019-02-12T17:55:47.607Z,71.40
2019-02-12T17:58:13.974Z,72.00
2019-02-12T18:00:44.576Z,72.20
2019-02-12T18:03:11.017Z,72.50
2019-02-12T18:05:37.356Z,70.80
2019-02-12T18:08:04.003Z,70.80
2019-02-12T18:10:30.221Z,71.50
2019-02-12T18:12:56.473Z,70.90
2019-02-12T18:15:22.733Z,71.20
2019-02-12T18:17:49.073Z,70.60
2019-02-12T18:20:16.248Z,69.70
2019-02-12T18:22:45.155Z,69.80
2019-02-12T18:25:11.480Z,70.70
2019-02-12T18:27:38.721Z,70.90
2019-02-12T18:30:16.032Z,70.90
2019-02-12T18:32:42.623Z,70.70
2019-02-12T18:35:09.071Z,70.70
2019-02-12T18:37:35.505Z,70.60
2019-02-12T18:40:03.841Z,70.90
2019-02-12T18:42:30.475Z,70.60
2019-02-12T18:44:56.763Z,70.60
2019-02-12T18:47:23.205Z,70.90
2019-02-12T18:49:49.548Z,70.80
2019-02-12T18:52:15.802Z,71.70
2019-02-12T18:54:42.058Z,71.30
2019-02-12T18:57:08.297Z,71.50
2019-02-12T18:59:35.370Z,71.10
2019-02-12T19:02:01.810Z,72.10
2019-02-12T19:04:28.249Z,71.90
2019-02-12T19:06:55.136Z,71.60
2019-02-12T19:09:21.473Z,72.30
2019-02-12T19:11:54.148Z,73.50
2019-02-12T19:14:15.981Z,72.50
2019-02-12T19:16:42.337Z,72.90
2019-02-12T19:19:08.690Z,73.00
2019-02-12T19:21:35.181Z,72.60
2019-02-12T19:24:01.711Z,72.70
2019-02-12T19:26:27.928Z,73.20
2019-02-12T19:28:54.418Z,73.70
2019-02-12T19:31:20.850Z,73.20
2019-02-12T19:33:47.629Z,73.30
2019-02-12T19:36:14.069Z,73.60
2019-02-12T19:38:40.677Z,74.10
2019-02-12T19:41:06.932Z,74.00
2019-02-12T19:43:33.353Z,74.30
2019-02-12T19:45:59.631Z,75.10
2019-02-12T19:48:25.834Z,75.00
2019-02-12T19:50:52.295Z,74.70
2019-02-12T19:53:18.637Z,75.10
2019-02-12T19:55:45.197Z,75.70
2019-02-12T19:58:11.543Z,74.90
2019-02-12T20:00:37.861Z,74.50
2019-02-12T20:03:04.301Z,75.00
2019-02-12T20:05:30.580Z,75.10
2019-02-12T20:07:56.885Z,75.80
2019-02-12T20:10:23.117Z,76.10
2019-02-12T20:12:49.844Z,76.30
2019-02-12T20:15:19.994Z,76.20
2019-02-12T20:17:46.340Z,75.90
2019-02-12T20:20:13.134Z,76.40
2019-02-12T20:22:39.565Z,76.50
2019-02-12T20:25:07.433Z,75.90
2019-02-12T20:27:35.923Z,76.30
2019-02-12T20:30:03.500Z,75.90
2019-02-12T20:32:29.911Z,76.10
2019-02-12T20:34:56.457Z,75.80
2019-02-12T20:37:22.805Z,76.80
2019-02-12T20:39:49.144Z,76.90
2019-02-12T20:42:16.111Z,76.80
2019-02-12T20:44:42.377Z,76.30
2019-02-12T20:47:08.718Z,77.40
2019-02-12T20:49:34.964Z,77.60
2019-02-12T20:52:01.197Z,77.90
2019-02-12T20:54:27.449Z,77.90
2019-02-12T20:56:53.697Z,78.20
2019-02-12T20:59:20.132Z,78.40
2019-02-12T21:01:46.580Z,78.30
2019-02-12T21:04:12.944Z,77.90
2019-02-12T21:06:39.437Z,78.00
2019-02-12T21:09:05.969Z,78.30
2019-02-12T21:11:32.316Z,78.30
2019-02-12T21:13:58.560Z,78.30
2019-02-12T21:16:24.789Z,78.90
2019-02-12T21:18:51.326Z,78.70
2019-02-12T21:21:17.753Z,79.40
2019-02-12T21:23:44.123Z,80.10
2019-02-12T21:26:10.485Z,80.80
2019-02-12T21:28:37.137Z,82.20
2019-02-12T21:31:04.180Z,84.00
2019-02-12T21:33:30.525Z,85.60
2019-02-12T21:35:56.833Z,86.40
2019-02-12T21:38:23.173Z,88.30
2019-02-12T21:40:52.688Z,91.30
2019-02-12T21:43:18.940Z,92.80
2019-02-12T21:45:45.172Z,94.60
2019-02-12T21:48:11.658Z,96.30
2019-02-12T21:50:38.097Z,97.90
2019-02-12T21:53:04.532Z,99.10
2019-02-12T21:55:30.909Z,99.90
2019-02-12T21:57:58.807Z,99.90
2019-02-12T22:00:25.387Z,99.90
2019-02-12T22:02:51.941Z,99.90
2019-02-12T22:05:18.377Z,99.90
2019-02-12T22:07:44.616Z,99.90
2019-02-12T22:10:20.657Z,99.90
2019-02-12T22:12:47.078Z,99.90
2019-02-12T22:15:13.444Z,99.90
2019-02-12T22:17:40.589Z,99.90
2019-02-12T22:20:12.659Z,99.90
2019-02-12T22:22:39.032Z,99.90
2019-02-12T22:25:06.901Z,99.90
2019-02-12T22:27:40.122Z,99.90
2019-02-12T22:30:01.765Z,99.90
2019-02-12T22:32:28.248Z,99.90
2019-02-12T22:34:54.674Z,99.90
2019-02-12T22:37:20.913Z,99.90
2019-02-12T22:39:47.428Z,99.90
2019-02-12T22:42:13.766Z,99.90
2019-02-12T22:44:40.022Z,99.90
2019-02-12T22:47:06.377Z,99.90
2019-02-12T22:49:32.702Z,99.90
2019-02-12T22:51:59.168Z,99.90
2019-02-12T22:54:25.547Z,99.90
2019-02-12T22:56:51.767Z,99.90
2019-02-12T22:59:18.013Z,99.90
2019-02-12T23:01:46.378Z,99.90
2019-02-12T23:04:12.715Z,99.90
2019-02-12T23:06:39.212Z,99.90
2019-02-12T23:09:08.362Z,99.90
2019-02-12T23:11:34.708Z,99.90
2019-02-12T23:14:01.050Z,99.90
2019-02-12T23:16:27.608Z,99.90
2019-02-12T23:18:53.845Z,99.90
2019-02-12T23:21:20.145Z,99.90
2019-02-12T23:23:46.489Z,99.90
2019-02-12T23:26:12.933Z,99.90
2019-02-12T23:28:39.184Z,99.90
2019-02-12T23:31:05.628Z,99.90
2019-02-12T23:33:32.076Z,99.90
2019-02-12T23:35:58.412Z,99.90
2019-02-12T23:38:24.848Z,99.90
2019-02-12T23:40:51.929Z,99.90
2019-02-12T23:43:18.265Z,99.90
2019-02-12T23:45:44.514Z,99.90
2019-02-12T23:48:10.871Z,99.90
2019-02-12T23:50:37.101Z,99.90
2019-02-12T23:53:03.559Z,99.90
2019-02-12T23:55:29.793Z,99.90
2019-02-12T23:57:56.137Z,99.90
